createdAt,value
2018-06-18T00:02:58.965Z,17.10
2018-06-18T00:10:23.635Z,17.10
2018-06-18T00:12:51.996Z,17.10
2018-06-18T00:15:20.434Z,17.10
2018-06-18T00:17:48.913Z,17.10
2018-06-18T00:20:17.329Z,17.00
2018-06-18T00:22:46.109Z,17.10
2018-06-18T00:25:14.460Z,17.40
2018-06-18T00:30:11.018Z,17.10
2018-06-18T00:37:35.731Z,17.00
2018-06-18T00:45:00.376Z,16.90
2018-06-18T00:49:56.868Z,16.80
2018-06-18T00:52:25.260Z,16.80
2018-06-18T00:54:53.615Z,16.90
2018-06-18T00:57:21.993Z,16.80
2018-06-18T00:59:50.398Z,16.70
2018-06-18T01:02:18.759Z,16.80
2018-06-18T01:04:47.146Z,16.70
2018-06-18T01:07:15.552Z,16.70
2018-06-18T01:09:44.828Z,16.60
2018-06-18T01:12:13.230Z,16.60
2018-06-18T01:14:41.604Z,16.60
2018-06-18T01:17:10.013Z,16.70
2018-06-18T01:19:38.374Z,16.60
2018-06-18T01:22:06.792Z,16.70
2018-06-18T01:24:44.213Z,16.50
2018-06-18T01:27:12.587Z,16.40
2018-06-18T01:29:40.993Z,16.30
2018-06-18T01:32:09.481Z,16.20
2018-06-18T01:34:37.878Z,16.20
2018-06-18T01:42:03.275Z,16.20
2018-06-18T01:44:31.646Z,16.20
2018-06-18T01:47:00.810Z,16.20
2018-06-18T01:51:57.244Z,16.10
2018-06-18T01:56:54.684Z,16.00
2018-06-18T01:59:22.449Z,16.00
2018-06-18T02:01:52.986Z,15.90
2018-06-18T02:04:19.309Z,16.00
2018-06-18T02:06:48.108Z,16.00
2018-06-18T02:09:16.505Z,16.00
2018-06-18T02:11:44.888Z,16.00
2018-06-18T02:14:13.220Z,16.00
2018-06-18T02:16:41.645Z,16.00
2018-06-18T02:19:10.003Z,16.10
2018-06-18T02:21:38.949Z,16.10
2018-06-18T02:24:07.372Z,16.10
2018-06-18T02:26:35.710Z,16.30
2018-06-18T02:29:22.196Z,16.20
2018-06-18T02:35:07.898Z,16.00
2018-06-18T02:40:40.006Z,15.90
2018-06-18T02:43:08.368Z,16.00
2018-06-18T02:48:04.960Z,15.90
2018-06-18T02:53:01.345Z,15.90
2018-06-18T02:55:29.745Z,15.90
2018-06-18T03:00:26.191Z,16.00
2018-06-18T03:02:54.649Z,15.90
2018-06-18T03:05:22.974Z,15.90
2018-06-18T03:07:51.953Z,15.90
2018-06-18T03:12:48.592Z,15.90
2018-06-18T03:15:16.949Z,15.90
2018-06-18T03:17:45.326Z,15.90
2018-06-18T03:20:31.553Z,15.90
2018-06-18T03:28:59.543Z,15.90
2018-06-18T03:31:27.943Z,15.90
2018-06-18T03:38:52.514Z,16.00
2018-06-18T03:41:20.878Z,15.90
2018-06-18T03:43:56.647Z,16.00
2018-06-18T03:46:25.024Z,16.00
2018-06-18T03:48:53.394Z,16.00
2018-06-18T03:51:21.724Z,16.00
2018-06-18T03:53:50.163Z,16.00
2018-06-18T03:58:46.564Z,16.30
2018-06-18T04:02:11.994Z,16.10
2018-06-18T04:05:06.259Z,16.10
2018-06-18T04:07:52.839Z,16.00
2018-06-18T04:10:39.177Z,16.10
2018-06-18T04:15:36.149Z,16.10
2018-06-18T04:20:44.713Z,16.10
2018-06-18T04:23:14.695Z,16.10
2018-06-18T04:33:08.098Z,16.20
2018-06-18T04:35:36.536Z,16.20
2018-06-18T04:38:04.900Z,16.30
2018-06-18T04:40:33.312Z,16.30
2018-06-18T04:43:19.347Z,16.30
2018-06-18T04:48:52.793Z,16.60
2018-06-18T04:51:22.818Z,16.40
2018-06-18T04:53:51.253Z,16.40
2018-06-18T04:58:47.776Z,16.40
2018-06-18T05:01:25.862Z,16.50
2018-06-18T05:03:54.652Z,16.50
2018-06-18T05:09:02.093Z,16.60
2018-06-18T05:11:30.481Z,16.60
2018-06-18T05:13:58.883Z,16.60
2018-06-18T05:18:55.383Z,16.70
2018-06-18T05:21:23.766Z,16.70
2018-06-18T05:23:52.187Z,16.90
2018-06-18T05:26:21.605Z,16.80
2018-06-18T05:28:49.996Z,16.70
2018-06-18T05:31:18.353Z,16.70
2018-06-18T05:36:14.979Z,16.70
2018-06-18T05:38:43.429Z,16.80
2018-06-18T05:41:11.793Z,17.00
2018-06-18T05:43:40.179Z,16.90
2018-06-18T05:46:08.581Z,16.80
2018-06-18T05:48:36.982Z,16.60
2018-06-18T05:51:05.372Z,16.60
2018-06-18T05:53:33.752Z,16.70
2018-06-18T05:56:02.163Z,16.90
2018-06-18T05:58:30.484Z,16.80
2018-06-18T06:00:58.886Z,16.90
2018-06-18T06:03:27.270Z,17.10
2018-06-18T06:05:55.836Z,17.00
2018-06-18T06:08:27.304Z,16.90
2018-06-18T06:15:51.991Z,17.10
2018-06-18T06:18:20.316Z,17.10
2018-06-18T06:25:50.356Z,16.90
2018-06-18T06:28:18.800Z,17.00
2018-06-18T06:30:47.235Z,16.90
2018-06-18T06:33:15.642Z,17.20
2018-06-18T06:35:44.934Z,17.00
2018-06-18T06:38:13.352Z,16.90
2018-06-18T06:40:42.212Z,16.90
2018-06-18T06:43:11.539Z,16.90
2018-06-18T06:45:40.323Z,16.90
2018-06-18T06:48:08.734Z,17.00
2018-06-18T06:50:37.154Z,17.00
2018-06-18T06:53:05.563Z,17.00
2018-06-18T06:55:33.926Z,16.90
2018-06-18T06:58:02.285Z,16.90
2018-06-18T07:05:26.942Z,16.90
2018-06-18T07:07:55.413Z,16.90
2018-06-18T07:12:51.850Z,16.80
2018-06-18T07:15:20.290Z,16.80
2018-06-18T07:17:48.728Z,16.80
2018-06-18T07:20:17.102Z,16.70
2018-06-18T07:22:45.521Z,16.80
2018-06-18T07:25:13.890Z,16.90
2018-06-18T07:27:42.511Z,17.00
2018-06-18T07:32:39.022Z,17.00
2018-06-18T07:35:07.486Z,17.00
2018-06-18T07:37:35.939Z,17.00
2018-06-18T07:42:32.480Z,16.90
2018-06-18T07:47:29.084Z,16.90
2018-06-18T07:49:57.496Z,17.00
2018-06-18T07:52:26.008Z,17.10
2018-06-18T07:57:22.547Z,17.10
2018-06-18T07:59:50.965Z,17.10
2018-06-18T08:02:19.375Z,17.10
2018-06-18T08:04:47.900Z,17.20
2018-06-18T08:07:16.244Z,17.20
2018-06-18T08:09:46.594Z,17.20
2018-06-18T08:12:14.911Z,17.20
2018-06-18T08:14:43.336Z,17.20
2018-06-18T08:17:13.132Z,17.20
2018-06-18T08:19:41.573Z,17.20
2018-06-18T08:22:09.957Z,17.50
2018-06-18T08:24:38.339Z,17.60
2018-06-18T08:27:08.374Z,17.80
2018-06-18T08:29:36.774Z,17.80
2018-06-18T08:32:05.180Z,17.80
2018-06-18T08:37:01.722Z,18.00
2018-06-18T08:39:30.115Z,17.80
2018-06-18T08:41:58.534Z,17.80
2018-06-18T08:44:26.975Z,18.00
2018-06-18T08:46:55.361Z,17.90
2018-06-18T08:49:23.732Z,17.80
2018-06-18T08:54:56.058Z,18.00
2018-06-18T08:57:42.247Z,18.00
2018-06-18T09:00:28.451Z,18.00
2018-06-18T09:03:05.556Z,18.10
2018-06-18T09:05:49.055Z,18.10
2018-06-18T09:10:53.303Z,18.60
2018-06-18T09:13:21.754Z,18.90
2018-06-18T09:15:50.185Z,19.10
2018-06-18T09:18:18.563Z,19.30
2018-06-18T09:20:47.266Z,19.50
2018-06-18T09:23:15.733Z,19.50
2018-06-18T09:25:59.950Z,19.50
2018-06-18T09:30:57.962Z,19.20
2018-06-18T09:33:26.317Z,19.10
2018-06-18T09:38:23.352Z,19.00
2018-06-18T09:40:53.849Z,19.00
2018-06-18T09:43:22.313Z,19.00
2018-06-18T09:45:52.230Z,19.10
2018-06-18T09:48:20.665Z,19.20
2018-06-18T09:51:07.104Z,19.30
2018-06-18T09:53:53.724Z,19.30
2018-06-18T09:56:39.881Z,19.40
2018-06-18T09:59:26.072Z,19.60
2018-06-18T10:04:22.673Z,19.80
2018-06-18T10:06:51.050Z,19.80
2018-06-18T10:09:19.517Z,19.80
2018-06-18T10:11:47.932Z,19.90
2018-06-18T10:14:16.347Z,20.00
2018-06-18T10:19:12.961Z,20.00
2018-06-18T10:21:41.414Z,20.40
2018-06-18T10:24:09.905Z,20.50
2018-06-18T10:26:38.290Z,20.40
2018-06-18T10:29:06.705Z,20.60
2018-06-18T10:31:35.085Z,21.20
2018-06-18T10:34:21.504Z,21.00
2018-06-18T10:37:07.738Z,20.90
2018-06-18T10:39:53.913Z,20.80
2018-06-18T10:45:08.407Z,20.80
2018-06-18T10:47:36.805Z,20.70
2018-06-18T10:50:05.201Z,20.70
2018-06-18T10:52:33.634Z,20.50
2018-06-18T10:57:30.185Z,20.70
2018-06-18T11:05:03.937Z,20.80
2018-06-18T11:07:32.806Z,20.80
2018-06-18T11:12:30.236Z,20.70
2018-06-18T11:14:58.587Z,20.70
2018-06-18T11:17:44.619Z,21.10
2018-06-18T11:20:32.788Z,21.30
2018-06-18T11:23:19.052Z,21.80
2018-06-18T11:26:05.233Z,22.80
2018-06-18T11:28:33.737Z,23.00
2018-06-18T11:31:02.140Z,22.80
2018-06-18T11:36:00.091Z,22.70
2018-06-18T11:38:28.497Z,22.60
2018-06-18T11:40:56.887Z,22.70
2018-06-18T11:45:53.546Z,22.60
2018-06-18T11:50:51.093Z,22.40
2018-06-18T11:53:20.336Z,22.20
2018-06-18T12:01:25.243Z,21.80
2018-06-18T12:04:11.496Z,21.80
2018-06-18T12:07:00.674Z,21.90
2018-06-18T12:09:30.465Z,22.10
2018-06-18T12:11:59.000Z,22.10
2018-06-18T12:14:27.313Z,21.90
2018-06-18T12:16:55.751Z,21.90
2018-06-18T12:21:52.262Z,21.80
2018-06-18T12:24:20.720Z,21.70
2018-06-18T12:26:49.077Z,21.60
2018-06-18T12:29:17.428Z,21.50
2018-06-18T12:34:13.979Z,21.20
2018-06-18T12:39:12.656Z,21.10
2018-06-18T12:41:55.461Z,21.10
2018-06-18T12:44:23.931Z,21.30
2018-06-18T12:47:10.136Z,21.50
2018-06-18T12:49:56.277Z,21.50
2018-06-18T12:55:28.762Z,21.60
2018-06-18T12:57:57.273Z,21.60
2018-06-18T13:07:54.868Z,21.40
2018-06-18T13:10:23.274Z,21.30
2018-06-18T13:12:51.663Z,21.20
2018-06-18T13:15:20.080Z,21.10
2018-06-18T13:17:48.513Z,21.10
2018-06-18T13:20:16.952Z,21.10
2018-06-18T13:22:45.368Z,21.50
2018-06-18T13:25:13.802Z,22.00
2018-06-18T13:27:59.954Z,22.30
2018-06-18T13:30:28.473Z,22.10
2018-06-18T13:32:56.796Z,21.80
2018-06-18T13:35:25.334Z,21.60
2018-06-18T13:38:13.921Z,21.70
2018-06-18T13:43:51.582Z,22.20
2018-06-18T13:46:37.927Z,23.30
2018-06-18T13:49:06.394Z,22.80
2018-06-18T13:51:34.752Z,22.60
2018-06-18T13:54:03.144Z,23.10
2018-06-18T13:56:31.672Z,23.50
2018-06-18T13:59:01.399Z,23.60
2018-06-18T14:06:27.524Z,26.60
2018-06-18T14:08:57.033Z,26.30
2018-06-18T14:11:26.254Z,25.70
2018-06-18T14:13:55.275Z,24.90
2018-06-18T14:16:23.676Z,24.60
2018-06-18T14:18:52.077Z,23.90
2018-06-18T14:21:20.447Z,23.40
2018-06-18T14:23:48.850Z,23.00
2018-06-18T14:26:18.613Z,22.60
2018-06-18T14:28:47.015Z,22.40
2018-06-18T14:31:33.348Z,22.50
2018-06-18T14:34:20.775Z,22.20
2018-06-18T14:37:09.119Z,21.90
2018-06-18T14:39:53.622Z,21.60
2018-06-18T14:42:22.061Z,21.40
2018-06-18T14:44:50.733Z,21.50
2018-06-18T14:47:19.170Z,21.70
2018-06-18T14:49:47.616Z,21.70
2018-06-18T14:54:44.225Z,21.50
2018-06-18T14:57:13.161Z,21.30
2018-06-18T14:59:54.469Z,21.00
2018-06-18T15:07:20.085Z,20.00
2018-06-18T15:09:48.453Z,19.90
2018-06-18T15:12:18.191Z,19.70
2018-06-18T15:17:33.981Z,20.00
2018-06-18T15:20:02.390Z,20.20
2018-06-18T15:25:02.226Z,20.90
2018-06-18T15:27:30.613Z,20.80
2018-06-18T15:29:59.021Z,20.70
2018-06-18T15:32:27.467Z,20.60
2018-06-18T15:34:55.875Z,20.80
2018-06-18T15:37:25.151Z,20.80
2018-06-18T15:39:53.509Z,20.70
2018-06-18T15:44:50.033Z,20.10
2018-06-18T15:47:18.448Z,20.10
2018-06-18T15:52:14.962Z,20.20
2018-06-18T15:54:44.826Z,20.20
2018-06-18T15:57:16.097Z,20.20
2018-06-18T15:59:44.464Z,20.20
2018-06-18T16:02:14.237Z,20.20
2018-06-18T16:09:39.051Z,21.00
2018-06-18T16:12:07.473Z,21.40
2018-06-18T16:14:36.067Z,21.30
2018-06-18T16:17:04.409Z,21.10
2018-06-18T16:22:03.694Z,20.60
2018-06-18T16:24:32.100Z,20.40
2018-06-18T16:27:00.540Z,20.10
2018-06-18T16:29:28.906Z,20.00
2018-06-18T16:31:57.328Z,20.10
2018-06-18T16:34:25.718Z,20.20
2018-06-18T16:36:54.290Z,20.30
2018-06-18T16:39:22.689Z,20.50
2018-06-18T16:44:19.251Z,20.60
2018-06-18T16:46:47.618Z,20.40
2018-06-18T16:51:44.358Z,20.80
2018-06-18T16:54:12.763Z,21.10
2018-06-18T17:01:37.645Z,20.80
2018-06-18T17:04:09.291Z,20.70
2018-06-18T17:06:37.803Z,20.50
2018-06-18T17:09:10.347Z,20.30
2018-06-18T17:11:38.793Z,20.10
2018-06-18T17:16:36.049Z,20.00
2018-06-18T17:19:04.496Z,19.90
2018-06-18T17:21:33.019Z,19.80
2018-06-18T17:24:01.389Z,19.90
2018-06-18T17:26:32.777Z,19.80
2018-06-18T17:29:01.215Z,19.90
2018-06-18T17:31:30.084Z,19.90
2018-06-18T17:33:58.577Z,19.80
2018-06-18T17:36:27.025Z,19.80
2018-06-18T17:41:23.520Z,19.70
2018-06-18T17:43:51.929Z,19.70
2018-06-18T17:48:48.423Z,20.00
2018-06-18T17:51:16.979Z,20.00
2018-06-18T17:53:45.468Z,20.10
2018-06-18T17:58:42.120Z,20.60
2018-06-18T18:01:10.620Z,20.70
2018-06-18T18:06:07.566Z,20.60
2018-06-18T18:08:36.003Z,20.50
2018-06-18T18:11:04.400Z,20.50
2018-06-18T18:16:00.908Z,20.50
2018-06-18T18:18:29.236Z,21.00
2018-06-18T18:28:23.630Z,20.20
2018-06-18T18:30:55.655Z,20.20
2018-06-18T18:33:24.157Z,20.00
2018-06-18T18:35:53.261Z,20.30
2018-06-18T18:38:24.265Z,20.10
2018-06-18T18:40:54.872Z,20.10
2018-06-18T18:43:23.589Z,20.00
2018-06-18T18:45:51.985Z,19.90
2018-06-18T18:50:55.015Z,19.60
2018-06-18T18:53:23.951Z,19.60
2018-06-18T18:59:06.812Z,19.50
2018-06-18T19:01:35.272Z,19.60
2018-06-18T19:06:32.966Z,19.80
2018-06-18T19:09:01.596Z,19.60
2018-06-18T19:11:30.068Z,19.40
2018-06-18T19:16:28.593Z,19.30
2018-06-18T19:18:59.696Z,19.20
2018-06-18T19:21:28.267Z,19.10
2018-06-18T19:28:53.128Z,18.90
2018-06-18T19:31:26.003Z,18.90
2018-06-18T19:34:12.349Z,19.00
2018-06-18T19:36:49.594Z,19.00
2018-06-18T19:39:18.544Z,19.00
2018-06-18T19:41:47.587Z,19.00
2018-06-18T19:44:17.689Z,18.90
2018-06-18T19:47:29.603Z,18.90
2018-06-18T19:49:59.579Z,18.90
2018-06-18T19:52:29.838Z,18.80
2018-06-18T19:55:10.676Z,18.80
2018-06-18T20:02:38.815Z,18.70
2018-06-18T20:05:14.252Z,18.70
2018-06-18T20:08:06.734Z,18.70
2018-06-18T20:10:35.268Z,18.60
2018-06-18T20:13:04.244Z,18.80
2018-06-18T20:15:32.893Z,18.70
2018-06-18T20:18:01.530Z,18.50
2018-06-18T20:23:00.265Z,18.40
2018-06-18T20:25:32.077Z,18.40
2018-06-18T20:28:01.766Z,18.40
2018-06-18T20:30:31.843Z,18.40
2018-06-18T20:35:34.789Z,18.40
2018-06-18T20:38:03.800Z,18.30
2018-06-18T20:40:33.358Z,18.20
2018-06-18T20:43:04.759Z,18.10
2018-06-18T20:45:34.766Z,18.30
2018-06-18T20:48:08.528Z,18.40
2018-06-18T20:50:39.795Z,18.50
2018-06-18T20:53:10.166Z,18.20
2018-06-18T20:55:41.676Z,18.10
2018-06-18T20:58:11.899Z,18.00
2018-06-18T21:00:42.483Z,17.90
2018-06-18T21:05:43.215Z,18.30
2018-06-18T21:08:12.489Z,18.30
2018-06-18T21:10:41.841Z,18.30
2018-06-18T21:15:39.802Z,18.10
2018-06-18T21:18:08.720Z,17.90
2018-06-18T21:20:38.575Z,17.80
2018-06-18T21:23:07.973Z,18.00
2018-06-18T21:25:37.657Z,17.80
2018-06-18T21:30:35.574Z,17.50
2018-06-18T21:33:04.791Z,17.50
2018-06-18T21:35:36.489Z,17.40
2018-06-18T21:38:07.223Z,17.40
2018-06-18T21:43:05.418Z,17.80
2018-06-18T21:48:03.215Z,17.80
2018-06-18T21:50:32.302Z,17.50
2018-06-18T21:55:30.701Z,17.30
2018-06-18T21:58:00.993Z,17.20
2018-06-18T22:00:38.013Z,17.10
2018-06-18T22:03:08.146Z,17.10
2018-06-18T22:05:37.313Z,17.40
2018-06-18T22:08:12.042Z,17.20
2018-06-18T22:13:09.018Z,17.10
2018-06-18T22:15:37.420Z,17.10
2018-06-18T22:18:05.954Z,17.10
2018-06-18T22:25:30.547Z,17.40
2018-06-18T22:27:58.998Z,17.30
2018-06-18T22:30:28.287Z,17.20
2018-06-18T22:32:56.802Z,17.40
2018-06-18T22:35:25.131Z,17.30
2018-06-18T22:40:21.687Z,17.20
2018-06-18T22:47:46.435Z,17.10
2018-06-18T22:50:14.762Z,17.00
2018-06-18T22:52:43.248Z,17.00
2018-06-18T22:55:11.696Z,17.00
2018-06-18T22:57:40.088Z,17.20
2018-06-18T23:00:10.648Z,17.40
2018-06-18T23:02:39.051Z,17.20
2018-06-18T23:05:07.399Z,17.10
2018-06-18T23:07:35.837Z,17.00
2018-06-18T23:10:04.304Z,17.00
2018-06-18T23:12:38.808Z,17.30
2018-06-18T23:17:36.005Z,17.10
2018-06-18T23:20:04.503Z,17.10
2018-06-18T23:22:32.880Z,17.10
2018-06-18T23:25:01.328Z,17.00
2018-06-18T23:29:57.812Z,17.10
2018-06-18T23:32:26.244Z,17.10
2018-06-18T23:37:22.685Z,17.10
2018-06-18T23:39:51.126Z,17.10
2018-06-18T23:42:19.804Z,17.10
2018-06-18T23:49:45.491Z,17.20
2018-06-18T23:52:13.875Z,17.20
2018-06-18T23:54:42.326Z,17.20
2018-06-18T23:57:10.726Z,17.20
2018-06-18T23:59:39.339Z,17.20
